Time;durP1;ratioP1;P1;durP2;ratioP2;P2;SDS_P1;SDS_P2;PMS_P1;PMS_P2;Temp;Humidity;BMP_temperature;BMP_pressure;BME280_temperature;BME280_humidity;BME280_pressure;Samples;Min_cycle;Max_cycle;Signal;HPM_P1;HPM_P2
2023/11/04 00:04:56;;;;;;;4.82;0.98;;;7.60;99.90;;;;;;15562291;22;20098;-33
2023/11/04 00:11:22;;;;;;;5.80;2.72;;;7.60;99.90;;;;;;15539778;22;20023;-34
2023/11/04 00:18:04;;;;;;;4.45;0.93;;;7.60;99.90;;;;;;15566260;22;20027;-34
2023/11/04 00:24:36;;;;;;;7.25;1.10;;;7.60;99.90;;;;;;15566509;22;20341;-34
2023/11/04 00:31:18;;;;;;;3.33;1.05;;;7.50;99.90;;;;;;15538210;22;20480;-33
2023/11/04 00:37:56;;;;;;;3.67;1.05;;;7.50;99.90;;;;;;15565502;22;20354;-33
2023/11/04 00:44:45;;;;;;;4.63;1.13;;;7.40;99.90;;;;;;15539304;22;20023;-34
2023/11/04 00:51:27;;;;;;;4.77;1.50;;;7.40;99.90;;;;;;15542760;22;20513;-34
2023/11/04 00:58:10;;;;;;;4.03;0.85;;;7.40;99.90;;;;;;15561397;22;20027;-34
2023/11/04 01:04:57;;;;;;;4.95;0.95;;;7.50;99.90;;;;;;15566263;22;20054;-34
2023/11/04 01:11:26;;;;;;;6.40;1.10;;;7.40;99.90;;;;;;15565078;22;20059;-34
2023/11/04 01:18:02;;;;;;;6.43;1.23;;;7.40;99.90;;;;;;15566871;22;20492;-34
2023/11/04 01:24:39;;;;;;;3.00;0.77;;;7.40;99.90;;;;;;15544906;22;20090;-34
2023/11/04 01:31:13;;;;;;;3.33;0.75;;;7.30;99.90;;;;;;15564628;22;20020;-33
2023/11/04 01:37:43;;;;;;;6.13;1.02;;;7.30;99.90;;;;;;15570174;22;20027;-34
2023/11/04 01:44:11;;;;;;;4.45;0.85;;;7.30;99.90;;;;;;15574463;22;20026;-34
2023/11/04 01:50:52;;;;;;;5.90;0.90;;;7.10;99.90;;;;;;15577337;22;20119;-34
2023/11/04 01:57:43;;;;;;;4.25;0.95;;;7.10;99.90;;;;;;15546579;22;20034;-34
2023/11/04 02:04:31;;;;;;;4.80;0.80;;;7.10;99.90;;;;;;15566939;22;20466;-33
2023/11/04 02:11:22;;;;;;;2.05;0.70;;;7.00;99.90;;;;;;15565622;22;20129;-33
2023/11/04 02:17:50;;;;;;;5.25;0.88;;;6.90;99.90;;;;;;15564907;22;20405;-33
2023/11/04 02:24:34;;;;;;;4.43;0.60;;;7.00;99.90;;;;;;15566032;22;20024;-33
2023/11/04 02:30:58;;;;;;;10.00;1.05;;;6.90;99.90;;;;;;15563382;22;20186;-34
2023/11/04 02:37:39;;;;;;;2.13;0.70;;;6.90;99.90;;;;;;15566915;22;20034;-33
2023/11/04 02:44:28;;;;;;;3.03;0.63;;;6.80;99.90;;;;;;15562590;22;20073;-33
2023/11/04 02:51:04;;;;;;;3.67;0.70;;;6.90;99.90;;;;;;15564852;22;20023;-33
2023/11/04 02:57:43;;;;;;;4.30;0.70;;;6.80;99.90;;;;;;15540330;22;20031;-33
2023/11/04 03:04:24;;;;;;;1.33;0.40;;;6.90;99.90;;;;;;15566916;22;20024;-34
2023/11/04 03:10:55;;;;;;;1.65;0.55;;;6.90;99.90;;;;;;15566123;22;20350;-33
2023/11/04 03:17:31;;;;;;;3.95;0.60;;;6.90;99.90;;;;;;15565374;22;20020;-33
2023/11/04 03:23:54;;;;;;;2.45;0.55;;;6.90;99.90;;;;;;15566064;22;20020;-34
2023/11/04 03:30:36;;;;;;;3.90;0.50;;;6.90;99.90;;;;;;15564768;22;20389;-34
2023/11/04 03:37:14;;;;;;;1.70;0.40;;;7.00;99.90;;;;;;15564441;22;20027;-34
2023/11/04 03:43:50;;;;;;;2.45;0.50;;;6.90;99.90;;;;;;15541491;22;20489;-33
2023/11/04 03:50:28;;;;;;;3.65;0.60;;;7.00;99.90;;;;;;15564092;22;20457;-33
2023/11/04 03:56:59;;;;;;;;;;;7.00;99.90;;;;;;15562569;22;20031;-33
2023/11/04 04:03:38;;;;;;;3.38;0.40;;;7.00;99.90;;;;;;15560168;22;19919;-33
2023/11/04 04:10:07;;;;;;;3.40;0.40;;;7.00;99.90;;;;;;15563256;22;20038;-34
2023/11/04 04:16:39;;;;;;;1.80;0.30;;;7.00;99.90;;;;;;15561375;22;20069;-34
2023/11/04 04:23:10;;;;;;;1.30;0.32;;;7.00;99.90;;;;;;15564391;22;20016;-34
2023/11/04 04:29:39;;;;;;;2.47;0.70;;;7.10;99.90;;;;;;15534750;22;20541;-34
2023/11/04 04:36:10;;;;;;;0.77;0.30;;;7.30;99.90;;;;;;15565175;22;20024;-33
2023/11/04 04:42:34;;;;;;;1.55;0.50;;;7.30;99.90;;;;;;15566248;22;20344;-34
2023/11/04 04:49:05;;;;;;;1.65;0.50;;;7.40;99.90;;;;;;15565335;22;20035;-34
2023/11/04 04:55:27;;;;;;;2.45;0.70;;;7.40;99.90;;;;;;15560706;22;20070;-33
2023/11/04 05:01:39;;;;;;;1.95;0.40;;;7.40;99.90;;;;;;15538787;22;20024;-34
2023/11/04 05:07:51;;;;;;;1.75;0.50;;;7.40;99.90;;;;;;15566337;22;20406;-33
2023/11/04 05:14:10;;;;;;;2.03;0.40;;;7.40;99.90;;;;;;15537540;22;20404;-33
2023/11/04 05:20:30;;;;;;;2.72;0.60;;;7.50;99.90;;;;;;15537471;22;20028;-33
2023/11/04 05:26:51;;;;;;;2.22;0.60;;;7.50;99.90;;;;;;15562344;22;20357;-34
2023/11/04 05:33:01;;;;;;;3.22;0.47;;;7.40;99.90;;;;;;15532655;22;20103;-33
2023/11/04 05:39:09;;;;;;;1.23;0.40;;;7.30;99.90;;;;;;15533911;22;20285;-33
2023/11/04 05:45:40;;;;;;;3.67;0.60;;;7.40;99.90;;;;;;15565281;22;20413;-34
2023/11/04 05:51:57;;;;;;;2.30;0.50;;;7.40;99.90;;;;;;15569377;22;20050;-34
2023/11/04 05:58:21;;;;;;;2.22;0.50;;;7.40;99.90;;;;;;15544890;22;20354;-34
2023/11/04 06:04:56;;;;;;;1.17;0.57;;;7.40;99.90;;;;;;15565563;22;20472;-33
2023/11/04 06:11:31;;;;;;;1.92;0.50;;;7.40;99.90;;;;;;15545692;22;20909;-34
2023/11/04 06:18:21;;;;;;;2.40;0.50;;;7.40;99.90;;;;;;15543327;22;20020;-33
2023/11/04 06:24:58;;;;;;;3.58;0.80;;;7.40;99.90;;;;;;15563674;22;20474;-34
2023/11/04 06:31:45;;;;;;;1.77;0.60;;;7.30;99.90;;;;;;15566120;22;20130;-33
2023/11/04 06:38:14;;;;;;;3.15;0.60;;;7.30;99.90;;;;;;15542553;22;20051;-34
2023/11/04 06:44:51;;;;;;;1.73;0.60;;;7.40;99.90;;;;;;15538055;22;20020;-33
2023/11/04 06:51:31;;;;;;;2.60;0.65;;;7.40;99.90;;;;;;15561174;22;20026;-34
2023/11/04 06:58:06;;;;;;;1.95;0.52;;;7.50;99.90;;;;;;15559149;22;20512;-34
2023/11/04 07:04:33;;;;;;;1.95;0.60;;;7.50;99.90;;;;;;15563321;22;20019;-34
2023/11/04 07:10:59;;;;;;;2.22;0.73;;;7.50;99.90;;;;;;15555261;22;20350;-34
2023/11/04 07:17:33;;;;;;;1.58;0.57;;;7.60;99.90;;;;;;15561706;22;20069;-33
2023/11/04 07:24:15;;;;;;;1.25;0.60;;;7.60;99.90;;;;;;15565173;22;20031;-34
2023/11/04 07:30:51;;;;;;;6.32;0.95;;;7.70;99.90;;;;;;15566468;22;20334;-34
2023/11/04 07:37:26;;;;;;;3.45;0.70;;;7.70;99.90;;;;;;15566135;22;20345;-34
2023/11/04 07:44:01;;;;;;;2.92;0.70;;;7.90;99.90;;;;;;15566784;22;20026;-33
2023/11/04 07:50:28;;;;;;;1.65;0.60;;;8.00;99.90;;;;;;15565401;22;20027;-33
2023/11/04 07:57:03;;;;;;;3.00;0.52;;;8.10;99.90;;;;;;15563597;22;20098;-33
2023/11/04 08:03:41;;;;;;;2.45;0.70;;;8.30;99.90;;;;;;15561687;22;20024;-33
2023/11/04 08:10:21;;;;;;;1.20;0.70;;;8.30;99.90;;;;;;15561246;22;20027;-33
2023/11/04 08:16:55;;;;;;;1.65;0.70;;;8.40;99.90;;;;;;15564467;22;20019;-34
2023/11/04 08:23:28;;;;;;;2.97;0.63;;;8.60;99.90;;;;;;15562849;22;20090;-34
2023/11/04 08:29:47;;;;;;;1.38;0.70;;;8.70;99.90;;;;;;15566889;22;20745;-34
2023/11/04 08:36:16;;;;;;;4.60;0.80;;;8.70;99.90;;;;;;15551115;22;20427;-33
2023/11/04 08:42:43;;;;;;;1.48;0.70;;;8.70;99.90;;;;;;15549722;22;20322;-34
2023/11/04 08:49:08;;;;;;;3.57;0.80;;;8.70;99.90;;;;;;15576964;22;20027;-34
2023/11/04 08:55:32;;;;;;;2.47;0.75;;;8.70;99.90;;;;;;15576308;22;20469;-34
2023/11/04 09:02:05;;;;;;;5.43;0.90;;;8.80;99.90;;;;;;15578354;22;20027;-34
2023/11/04 09:08:33;;;;;;;1.40;0.88;;;8.90;99.90;;;;;;15572432;22;20105;-34
2023/11/04 09:15:27;;;;;;;3.33;0.98;;;9.00;99.90;;;;;;15570743;22;20042;-34
2023/11/04 09:22:08;;;;;;;1.42;0.80;;;9.10;99.90;;;;;;15581483;22;20023;-34
2023/11/04 09:28:46;;;;;;;1.58;0.80;;;9.30;99.90;;;;;;15581801;22;20019;-34
2023/11/04 09:35:26;;;;;;;1.17;0.60;;;9.50;99.90;;;;;;15581586;22;20572;-33
2023/11/04 09:41:53;;;;;;;1.83;0.70;;;9.50;99.90;;;;;;15555535;22;20026;-34
2023/11/04 09:48:27;;;;;;;1.60;0.70;;;9.50;99.90;;;;;;15579997;22;20024;-34
2023/11/04 09:54:55;;;;;;;2.10;0.80;;;9.90;99.90;;;;;;15579508;22;20024;-34
2023/11/04 10:01:23;;;;;;;3.80;0.85;;;10.20;99.90;;;;;;15579356;22;20611;-34
2023/11/04 10:07:43;;;;;;;1.87;0.80;;;10.30;96.60;;;;;;15579699;22;20023;-34
2023/11/04 10:14:21;;;;;;;1.58;0.80;;;10.60;99.90;;;;;;15504471;23;20065;-34
2023/11/04 10:21:00;;;;;;;1.30;0.65;;;10.90;67.40;;;;;;15505519;23;20496;-34
2023/11/04 10:27:43;;;;;;;1.42;0.50;;;11.10;61.10;;;;;;15498979;23;20771;-33
2023/11/04 10:34:29;;;;;;;3.00;0.80;;;11.00;59.50;;;;;;15504500;23;20336;-34
2023/11/04 10:40:58;;;;;;;1.55;0.70;;;10.70;99.60;;;;;;15506382;23;20098;-34
2023/11/04 10:48:04;;;;;;;2.33;0.68;;;11.00;31.90;;;;;;15502196;23;20020;-34
2023/11/04 10:55:07;;;;;;;0.95;0.60;;;11.00;43.80;;;;;;15502297;23;20362;-34
2023/11/04 11:01:36;;;;;;;1.10;0.50;;;10.90;61.50;;;;;;15501753;23;20143;-34
2023/11/04 11:08:07;;;;;;;2.08;0.70;;;11.20;35.70;;;;;;15484431;22;20070;-33
2023/11/04 11:14:51;;;;;;;2.28;0.52;;;10.80;67.00;;;;;;15503996;23;20024;-34
2023/11/04 11:21:22;;;;;;;1.95;0.55;;;10.30;81.40;;;;;;15480760;23;20455;-34
2023/11/04 11:28:06;;;;;;;0.88;0.47;;;10.20;99.90;;;;;;15499922;23;20020;-33
2023/11/04 11:35:07;;;;;;;1.93;0.60;;;10.00;99.90;;;;;;15500735;23;20091;-33
2023/11/04 11:41:53;;;;;;;2.05;0.50;;;9.80;97.60;;;;;;15502141;23;20016;-33
2023/11/04 11:48:24;;;;;;;1.33;0.52;;;9.80;99.90;;;;;;15502012;23;20024;-34
2023/11/04 11:55:06;;;;;;;1.52;0.50;;;10.00;88.70;;;;;;15501867;23;20336;-33
2023/11/04 12:01:48;;;;;;;2.00;0.70;;;10.30;90.10;;;;;;15502271;23;20047;-34
2023/11/04 12:08:23;;;;;;;1.23;0.55;;;10.10;99.90;;;;;;15479255;22;20477;-34
2023/11/04 12:15:23;;;;;;;1.58;0.70;;;10.00;94.40;;;;;;15575102;22;20049;-34
2023/11/04 12:22:07;;;;;;;1.70;0.70;;;10.00;99.90;;;;;;15575351;22;20079;-33
2023/11/04 12:28:49;;;;;;;2.05;0.60;;;10.00;99.90;;;;;;15569396;22;20024;-33
2023/11/04 12:35:19;;;;;;;2.45;0.60;;;10.00;99.90;;;;;;15548618;22;20031;-34
2023/11/04 12:41:51;;;;;;;3.60;0.60;;;10.00;99.90;;;;;;15575506;22;20020;-34
2023/11/04 12:48:25;;;;;;;1.05;0.43;;;10.10;99.90;;;;;;15575237;22;20369;-33
2023/11/04 12:54:58;;;;;;;2.42;0.60;;;10.00;95.80;;;;;;15577261;22;20086;-33
2023/11/04 13:01:25;;;;;;;1.40;0.70;;;10.00;96.90;;;;;;15572298;22;20023;-34
2023/11/04 13:07:59;;;;;;;1.50;0.60;;;9.90;99.90;;;;;;15577070;22;20434;-33
2023/11/04 13:14:38;;;;;;;1.83;0.60;;;9.90;99.90;;;;;;15574064;22;20735;-34
2023/11/04 13:21:19;;;;;;;1.73;0.63;;;9.70;99.90;;;;;;15574364;22;20023;-34
2023/11/04 13:28:00;;;;;;;1.85;0.60;;;9.70;99.90;;;;;;15569941;22;20031;-33
2023/11/04 13:34:36;;;;;;;1.50;0.77;;;9.70;99.90;;;;;;15575857;22;20473;-33
2023/11/04 13:41:13;;;;;;;2.47;0.60;;;9.70;99.90;;;;;;15551940;22;20462;-34
2023/11/04 13:47:53;;;;;;;5.25;0.77;;;9.70;99.90;;;;;;15572960;22;20109;-34
2023/11/04 13:54:24;;;;;;;3.75;0.68;;;9.70;95.40;;;;;;15573605;22;20523;-34
2023/11/04 14:01:00;;;;;;;3.97;0.70;;;9.70;97.30;;;;;;15548273;22;20043;-33
2023/11/04 14:07:29;;;;;;;2.83;0.68;;;9.70;99.90;;;;;;15578606;22;20023;-33
2023/11/04 14:14:09;;;;;;;2.50;0.70;;;9.70;99.90;;;;;;15581086;22;20035;-33
2023/11/04 14:20:41;;;;;;;1.35;0.55;;;9.70;99.90;;;;;;15579288;22;20134;-33
2023/11/04 14:27:14;;;;;;;2.30;0.50;;;9.70;99.90;;;;;;15578127;22;20027;-33
2023/11/04 14:33:43;;;;;;;2.65;0.50;;;9.70;99.90;;;;;;15581890;22;20016;-34
2023/11/04 14:40:17;;;;;;;2.70;1.08;;;9.70;99.90;;;;;;15581294;22;20020;-33
2023/11/04 14:47:05;;;;;;;2.67;0.70;;;9.50;99.90;;;;;;15579903;22;20066;-34
2023/11/04 14:53:29;;;;;;;2.13;0.60;;;9.30;99.90;;;;;;15557417;22;20472;-34
2023/11/04 14:59:52;;;;;;;1.17;0.50;;;9.10;99.90;;;;;;15577650;22;20377;-34
2023/11/04 15:06:22;;;;;;;3.45;0.60;;;9.10;99.90;;;;;;15579144;22;20020;-33
2023/11/04 15:13:01;;;;;;;2.05;0.70;;;9.00;99.90;;;;;;15576094;22;20354;-33
2023/11/04 15:19:43;;;;;;;44.70;14.57;;;8.90;99.90;;;;;;15577847;22;20023;-33
2023/11/04 15:26:17;;;;;;;13.63;5.65;;;8.80;99.90;;;;;;15551231;22;20019;-33
2023/11/04 15:32:55;;;;;;;3.10;0.93;;;8.70;99.90;;;;;;15574401;22;20023;-34
2023/11/04 15:39:30;;;;;;;2.22;0.68;;;8.60;99.90;;;;;;15579752;22;20365;-33
2023/11/04 15:45:57;;;;;;;3.15;0.68;;;8.50;99.90;;;;;;15575852;22;20075;-33
2023/11/04 15:52:28;;;;;;;3.05;0.65;;;8.40;99.90;;;;;;15579133;22;20639;-33
2023/11/04 15:58:59;;;;;;;1.52;0.70;;;8.40;99.90;;;;;;15553572;22;20123;-33
2023/11/04 16:05:29;;;;;;;1.45;0.60;;;8.30;99.90;;;;;;15580234;22;20094;-32
2023/11/04 16:12:03;;;;;;;5.47;0.82;;;8.20;99.90;;;;;;15578857;22;20098;-33
2023/11/04 16:18:43;;;;;;;2.22;0.60;;;8.20;99.90;;;;;;15576810;22;20020;-32
2023/11/04 16:25:14;;;;;;;1.03;0.60;;;8.20;99.90;;;;;;15551930;22;20019;-34
2023/11/04 16:32:00;;;;;;;;;;;;;;;;;;;;;
2023/11/04 16:38:42;;;;;;;1.88;0.70;;;8.20;99.90;;;;;;15577957;22;20389;-33
2023/11/04 16:45:11;;;;;;;3.03;0.75;;;8.20;99.90;;;;;;15574646;22;20047;-33
2023/11/04 16:51:51;;;;;;;1.33;0.60;;;8.20;99.90;;;;;;15576952;22;20444;-33
2023/11/04 16:58:21;;;;;;;2.25;0.57;;;8.20;99.90;;;;;;15578468;22;20020;-33
2023/11/04 17:04:57;;;;;;;1.10;0.50;;;8.20;99.90;;;;;;15578530;22;20485;-33
2023/11/04 17:11:34;;;;;;;2.95;0.98;;;8.20;99.90;;;;;;15576121;22;20035;-32
2023/11/04 17:18:05;;;;;;;1.92;0.63;;;8.20;99.90;;;;;;15578296;22;20026;-33
2023/11/04 17:24:38;;;;;;;5.00;1.50;;;8.20;99.90;;;;;;15579267;22;20023;-34
2023/11/04 17:31:11;;;;;;;1.48;0.50;;;8.20;99.90;;;;;;15577502;22;20485;-33
2023/11/04 17:37:49;;;;;;;2.13;0.80;;;8.20;99.90;;;;;;15557839;22;20027;-34
2023/11/04 17:44:22;;;;;;;1.40;0.52;;;8.30;99.90;;;;;;15559405;22;20027;-33
2023/11/04 17:50:49;;;;;;;2.17;0.60;;;8.30;99.90;;;;;;15582651;22;20028;-33
2023/11/04 17:57:20;;;;;;;;;;;8.30;99.90;;;;;;15583184;22;20030;-33
2023/11/04 18:03:58;;;;;;;3.10;1.10;;;8.30;99.90;;;;;;15584386;22;20234;-34
2023/11/04 18:10:45;;;;;;;0.73;0.40;;;8.30;99.90;;;;;;15581957;22;20035;-34
2023/11/04 18:17:16;;;;;;;1.33;0.40;;;8.30;99.90;;;;;;15582778;22;20075;-34
2023/11/04 18:23:39;;;;;;;1.30;0.35;;;8.30;99.90;;;;;;15580709;22;20058;-33
2023/11/04 18:30:05;;;;;;;1.33;0.52;;;8.30;99.90;;;;;;15579576;22;20024;-33
2023/11/04 18:36:45;;;;;;;0.98;0.30;;;8.30;99.90;;;;;;15581337;22;20071;-34
2023/11/04 18:43:22;;;;;;;0.55;0.40;;;8.30;99.90;;;;;;15579120;22;20030;-34
2023/11/04 18:49:53;;;;;;;0.50;0.30;;;8.30;99.90;;;;;;15578893;22;20023;-34
2023/11/04 18:56:18;;;;;;;1.27;0.32;;;8.30;99.90;;;;;;15579492;22;20019;-33
2023/11/04 19:02:53;;;;;;;1.02;0.50;;;8.30;99.90;;;;;;15581198;22;20022;-34
2023/11/04 19:09:26;;;;;;;0.95;0.47;;;8.40;99.90;;;;;;15577401;22;20031;-34
2023/11/04 19:15:49;;;;;;;0.88;0.40;;;8.40;99.90;;;;;;15566597;22;20027;-34
2023/11/04 19:22:24;;;;;;;0.70;0.38;;;8.50;99.90;;;;;;15580166;22;20016;-34
2023/11/04 19:28:54;;;;;;;0.38;0.22;;;8.40;99.90;;;;;;15581289;22;20456;-34
2023/11/04 19:35:33;;;;;;;0.50;0.30;;;8.40;99.90;;;;;;15580963;22;20030;-34
2023/11/04 19:42:07;;;;;;;2.90;0.90;;;8.30;99.90;;;;;;15578010;22;20090;-34
2023/11/04 19:48:32;;;;;;;2.08;0.50;;;8.40;99.90;;;;;;15578487;22;20023;-34
2023/11/04 19:54:55;;;;;;;;;;;8.50;99.90;;;;;;15578556;22;20023;-34
2023/11/04 20:01:25;;;;;;;1.20;0.40;;;8.70;99.90;;;;;;15577689;22;19923;-34
2023/11/04 20:08:03;;;;;;;1.77;0.38;;;8.60;99.90;;;;;;15566883;22;20521;-34
2023/11/04 20:14:46;;;;;;;1.20;0.40;;;8.50;99.90;;;;;;15555826;22;20043;-34
2023/11/04 20:21:07;;;;;;;1.75;0.40;;;8.50;99.90;;;;;;15579285;22;20020;-34
2023/11/04 20:27:35;;;;;;;0.30;0.20;;;8.50;99.90;;;;;;15577530;22;20019;-34
2023/11/04 20:34:14;;;;;;;0.95;0.30;;;8.40;99.90;;;;;;15555506;22;20020;-34
2023/11/04 20:40:39;;;;;;;1.10;0.40;;;8.50;99.90;;;;;;15578101;22;20027;-34
2023/11/04 20:47:13;;;;;;;0.75;0.30;;;8.50;99.90;;;;;;15574735;22;20563;-34
2023/11/04 20:53:45;;;;;;;2.15;0.30;;;8.70;99.90;;;;;;15576091;22;20042;-34
2023/11/04 20:59:57;;;;;;;1.65;0.30;;;8.70;99.90;;;;;;15576815;22;20446;-34
2023/11/04 21:06:32;;;;;;;1.73;0.40;;;8.80;99.90;;;;;;15576701;22;20019;-34
2023/11/04 21:13:14;;;;;;;0.63;0.30;;;9.00;99.90;;;;;;15580882;22;20353;-34
2023/11/04 21:19:51;;;;;;;0.43;0.28;;;9.00;99.90;;;;;;15581023;22;20020;-33
2023/11/04 21:26:18;;;;;;;1.30;0.17;;;9.10;99.90;;;;;;15580646;22;20015;-34
2023/11/04 21:32:47;;;;;;;0.73;0.30;;;9.10;99.90;;;;;;15582187;22;20465;-34
2023/11/04 21:39:26;;;;;;;1.40;0.40;;;9.20;99.90;;;;;;15577889;22;20258;-34
2023/11/04 21:45:59;;;;;;;2.50;0.28;;;9.20;99.90;;;;;;15580388;22;20349;-34
2023/11/04 21:52:39;;;;;;;0.70;0.20;;;9.00;99.90;;;;;;15575589;22;20462;-35
2023/11/04 21:59:15;;;;;;;0.25;0.20;;;9.00;99.90;;;;;;15578407;22;20020;-34
2023/11/04 22:05:46;;;;;;;0.63;0.30;;;8.90;99.90;;;;;;15555485;22;20019;-33
2023/11/04 22:12:06;;;;;;;1.13;0.40;;;9.00;99.90;;;;;;15579946;22;20028;-34
2023/11/04 22:18:45;;;;;;;1.33;0.50;;;8.90;99.90;;;;;;15578009;22;20020;-33
2023/11/04 22:25:25;;;;;;;2.20;0.55;;;9.00;99.90;;;;;;15579057;22;20103;-34
2023/11/04 22:31:58;;;;;;;1.90;0.40;;;8.90;99.90;;;;;;15581233;22;20473;-34
2023/11/04 22:38:33;;;;;;;1.80;0.30;;;9.00;99.90;;;;;;15557655;22;20450;-33
2023/11/04 22:45:03;;;;;;;1.73;0.45;;;9.00;99.90;;;;;;15578735;22;20016;-34
2023/11/04 22:51:39;;;;;;;1.52;0.32;;;9.10;99.90;;;;;;15579794;22;20322;-34
2023/11/04 22:58:17;;;;;;;1.60;0.45;;;9.10;99.90;;;;;;15574736;22;20349;-34
2023/11/04 23:04:48;;;;;;;0.95;0.40;;;9.20;99.90;;;;;;15579908;22;20023;-34
2023/11/04 23:11:12;;;;;;;3.20;0.60;;;9.20;99.90;;;;;;15573869;22;20030;-34
2023/11/04 23:17:51;;;;;;;1.55;0.60;;;9.30;99.90;;;;;;15579334;22;20093;-34
2023/11/04 23:24:27;;;;;;;4.03;0.47;;;9.40;99.90;;;;;;15578480;22;20369;-33
2023/11/04 23:30:59;;;;;;;1.23;0.40;;;9.40;99.90;;;;;;15577997;22;20046;-33
2023/11/04 23:37:33;;;;;;;1.73;0.52;;;9.40;99.90;;;;;;15578408;22;20034;-34
2023/11/04 23:44:18;;;;;;;2.45;0.65;;;9.40;99.90;;;;;;15575957;22;20342;-33
2023/11/04 23:50:47;;;;;;;2.22;0.50;;;9.50;99.90;;;;;;15580143;22;20027;-34
2023/11/04 23:57:22;;;;;;;1.13;0.40;;;9.40;99.90;;;;;;15555719;22;20026;-33
